sensor_id;sensor_type;location;lat;lon;timestamp;temperature;humidity
50544;DHT22;41176;44.032;20.900;2023-02-18T00:00:10;9.70;63.20
50544;DHT22;41176;44.032;20.900;2023-02-18T00:02:36;9.70;63.40
50544;DHT22;41176;44.032;20.900;2023-02-18T00:05:02;9.60;63.70
50544;DHT22;41176;44.032;20.900;2023-02-18T00:07:27;9.50;63.90
50544;DHT22;41176;44.032;20.900;2023-02-18T00:09:53;9.40;64.20
50544;DHT22;41176;44.032;20.900;2023-02-18T00:12:19;9.40;64.10
50544;DHT22;41176;44.032;20.900;2023-02-18T00:14:44;9.30;64.50
50544;DHT22;41176;44.032;20.900;2023-02-18T00:17:10;9.30;64.40
50544;DHT22;41176;44.032;20.900;2023-02-18T00:19:36;9.30;64.20
50544;DHT22;41176;44.032;20.900;2023-02-18T00:22:02;9.30;64.30
50544;DHT22;41176;44.032;20.900;2023-02-18T00:24:27;9.30;63.80
50544;DHT22;41176;44.032;20.900;2023-02-18T00:26:53;9.40;63.80
50544;DHT22;41176;44.032;20.900;2023-02-18T00:29:19;9.40;63.70
50544;DHT22;41176;44.032;20.900;2023-02-18T00:31:45;9.40;63.70
50544;DHT22;41176;44.032;20.900;2023-02-18T00:34:12;9.40;63.90
50544;DHT22;41176;44.032;20.900;2023-02-18T00:36:38;9.40;64.10
50544;DHT22;41176;44.032;20.900;2023-02-18T00:39:07;9.30;64.20
50544;DHT22;41176;44.032;20.900;2023-02-18T00:41:34;9.20;64.30
50544;DHT22;41176;44.032;20.900;2023-02-18T00:44:00;9.30;64.10
50544;DHT22;41176;44.032;20.900;2023-02-18T00:46:26;9.30;64.10
50544;DHT22;41176;44.032;20.900;2023-02-18T00:48:52;9.20;64.10
50544;DHT22;41176;44.032;20.900;2023-02-18T00:51:18;9.20;64.20
50544;DHT22;41176;44.032;20.900;2023-02-18T00:53:44;9.20;64.10
50544;DHT22;41176;44.032;20.900;2023-02-18T00:56:10;9.20;64.30
50544;DHT22;41176;44.032;20.900;2023-02-18T00:58:36;9.10;64.20
50544;DHT22;41176;44.032;20.900;2023-02-18T01:01:04;9.20;64.10
50544;DHT22;41176;44.032;20.900;2023-02-18T01:03:30;9.20;64.20
50544;DHT22;41176;44.032;20.900;2023-02-18T01:05:55;9.20;64.20
50544;DHT22;41176;44.032;20.900;2023-02-18T01:08:21;9.10;64.20
50544;DHT22;41176;44.032;20.900;2023-02-18T01:10:49;9.10;64.20
50544;DHT22;41176;44.032;20.900;2023-02-18T01:13:16;9.10;64.50
50544;DHT22;41176;44.032;20.900;2023-02-18T01:15:42;9.00;64.70
50544;DHT22;41176;44.032;20.900;2023-02-18T01:18:09;9.00;64.80
50544;DHT22;41176;44.032;20.900;2023-02-18T01:20:36;9.00;64.90
50544;DHT22;41176;44.032;20.900;2023-02-18T01:23:03;8.90;65.00
50544;DHT22;41176;44.032;20.900;2023-02-18T01:25:30;8.90;65.20
50544;DHT22;41176;44.032;20.900;2023-02-18T01:27:56;8.90;65.90
50544;DHT22;41176;44.032;20.900;2023-02-18T01:30:22;8.90;65.30
50544;DHT22;41176;44.032;20.900;2023-02-18T01:32:47;8.90;65.20
50544;DHT22;41176;44.032;20.900;2023-02-18T01:35:16;8.90;65.10
50544;DHT22;41176;44.032;20.900;2023-02-18T01:37:43;8.90;65.10
50544;DHT22;41176;44.032;20.900;2023-02-18T01:40:12;9.00;64.30
50544;DHT22;41176;44.032;20.900;2023-02-18T01:42:39;9.10;63.80
50544;DHT22;41176;44.032;20.900;2023-02-18T01:50:42;9.50;62.20
50544;DHT22;41176;44.032;20.900;2023-02-18T01:53:09;9.60;62.00
50544;DHT22;41176;44.032;20.900;2023-02-18T01:55:36;9.70;61.90
50544;DHT22;41176;44.032;20.900;2023-02-18T01:58:03;9.80;61.60
50544;DHT22;41176;44.032;20.900;2023-02-18T02:00:29;9.90;61.40
50544;DHT22;41176;44.032;20.900;2023-02-18T02:02:57;9.90;61.20
50544;DHT22;41176;44.032;20.900;2023-02-18T02:05:22;10.00;60.90
50544;DHT22;41176;44.032;20.900;2023-02-18T02:07:50;10.10;60.80
50544;DHT22;41176;44.032;20.900;2023-02-18T02:10:18;10.10;60.70
50544;DHT22;41176;44.032;20.900;2023-02-18T02:34:48;9.60;62.70
50544;DHT22;41176;44.032;20.900;2023-02-18T02:37:37;9.60;62.70
50544;DHT22;41176;44.032;20.900;2023-02-18T02:48:43;9.40;63.70
50544;DHT22;41176;44.032;20.900;2023-02-18T02:53:39;9.40;63.60
50544;DHT22;41176;44.032;20.900;2023-02-18T02:56:05;9.50;63.60
50544;DHT22;41176;44.032;20.900;2023-02-18T02:58:31;9.50;63.30
50544;DHT22;41176;44.032;20.900;2023-02-18T03:11:43;9.70;63.20
50544;DHT22;41176;44.032;20.900;2023-02-18T03:20:08;9.70;63.50
50544;DHT22;41176;44.032;20.900;2023-02-18T03:22:40;9.70;63.40
50544;DHT22;41176;44.032;20.900;2023-02-18T03:25:08;9.70;63.40
50544;DHT22;41176;44.032;20.900;2023-02-18T03:30:17;9.70;63.70
50544;DHT22;41176;44.032;20.900;2023-02-18T03:32:46;9.70;63.70
50544;DHT22;41176;44.032;20.900;2023-02-18T03:35:18;9.70;63.90
50544;DHT22;41176;44.032;20.900;2023-02-18T03:37:54;9.80;64.20
50544;DHT22;41176;44.032;20.900;2023-02-18T03:40:28;9.80;63.90
50544;DHT22;41176;44.032;20.900;2023-02-18T03:42:59;9.70;64.20
50544;DHT22;41176;44.032;20.900;2023-02-18T03:45:25;9.70;64.40
50544;DHT22;41176;44.032;20.900;2023-02-18T03:47:52;9.70;64.50
50544;DHT22;41176;44.032;20.900;2023-02-18T03:50:18;9.70;64.70
50544;DHT22;41176;44.032;20.900;2023-02-18T03:52:44;9.60;65.40
50544;DHT22;41176;44.032;20.900;2023-02-18T03:55:10;9.60;64.90
50544;DHT22;41176;44.032;20.900;2023-02-18T03:57:35;9.60;65.00
50544;DHT22;41176;44.032;20.900;2023-02-18T04:00:03;9.50;65.00
50544;DHT22;41176;44.032;20.900;2023-02-18T04:02:30;9.50;65.10
50544;DHT22;41176;44.032;20.900;2023-02-18T04:04:56;9.60;65.10
50544;DHT22;41176;44.032;20.900;2023-02-18T04:07:21;9.60;64.90
50544;DHT22;41176;44.032;20.900;2023-02-18T04:09:47;9.60;64.30
50544;DHT22;41176;44.032;20.900;2023-02-18T04:12:13;9.60;64.20
50544;DHT22;41176;44.032;20.900;2023-02-18T04:14:38;9.70;64.40
50544;DHT22;41176;44.032;20.900;2023-02-18T04:17:04;9.70;64.00
50544;DHT22;41176;44.032;20.900;2023-02-18T04:19:30;9.80;64.10
50544;DHT22;41176;44.032;20.900;2023-02-18T04:21:56;9.80;63.90
50544;DHT22;41176;44.032;20.900;2023-02-18T04:24:21;9.80;64.00
50544;DHT22;41176;44.032;20.900;2023-02-18T04:26:47;9.80;64.10
50544;DHT22;41176;44.032;20.900;2023-02-18T04:29:13;9.80;63.90
50544;DHT22;41176;44.032;20.900;2023-02-18T04:31:38;9.80;63.90
50544;DHT22;41176;44.032;20.900;2023-02-18T04:34:04;9.80;63.90
50544;DHT22;41176;44.032;20.900;2023-02-18T04:36:30;9.90;64.10
50544;DHT22;41176;44.032;20.900;2023-02-18T04:38:55;9.90;63.90
50544;DHT22;41176;44.032;20.900;2023-02-18T04:41:21;9.90;64.30
50544;DHT22;41176;44.032;20.900;2023-02-18T04:43:46;9.90;64.40
50544;DHT22;41176;44.032;20.900;2023-02-18T04:46:12;9.80;64.30
50544;DHT22;41176;44.032;20.900;2023-02-18T04:48:38;9.80;64.50
50544;DHT22;41176;44.032;20.900;2023-02-18T04:51:04;9.80;64.30
50544;DHT22;41176;44.032;20.900;2023-02-18T04:53:29;9.90;64.10
50544;DHT22;41176;44.032;20.900;2023-02-18T04:55:55;9.90;63.70
50544;DHT22;41176;44.032;20.900;2023-02-18T04:58:21;10.00;63.60
50544;DHT22;41176;44.032;20.900;2023-02-18T05:00:47;10.10;63.10
50544;DHT22;41176;44.032;20.900;2023-02-18T05:03:13;10.20;63.10
50544;DHT22;41176;44.032;20.900;2023-02-18T05:05:39;10.20;62.80
50544;DHT22;41176;44.032;20.900;2023-02-18T05:08:06;10.30;62.90
50544;DHT22;41176;44.032;20.900;2023-02-18T05:10:33;10.30;62.70
50544;DHT22;41176;44.032;20.900;2023-02-18T05:12:59;10.40;62.30
50544;DHT22;41176;44.032;20.900;2023-02-18T05:15:25;10.50;61.70
50544;DHT22;41176;44.032;20.900;2023-02-18T05:17:51;10.50;61.60
50544;DHT22;41176;44.032;20.900;2023-02-18T05:20:17;10.60;61.20
50544;DHT22;41176;44.032;20.900;2023-02-18T05:22:42;10.60;61.40
50544;DHT22;41176;44.032;20.900;2023-02-18T05:25:08;10.60;61.60
50544;DHT22;41176;44.032;20.900;2023-02-18T05:27:34;10.60;61.80
50544;DHT22;41176;44.032;20.900;2023-02-18T05:29:59;10.60;62.00
50544;DHT22;41176;44.032;20.900;2023-02-18T05:32:25;10.50;62.00
50544;DHT22;41176;44.032;20.900;2023-02-18T05:34:51;10.60;62.00
50544;DHT22;41176;44.032;20.900;2023-02-18T05:37:16;10.50;61.90
50544;DHT22;41176;44.032;20.900;2023-02-18T05:39:43;10.50;62.10
50544;DHT22;41176;44.032;20.900;2023-02-18T05:42:09;10.50;62.10
50544;DHT22;41176;44.032;20.900;2023-02-18T05:44:35;10.50;62.20
50544;DHT22;41176;44.032;20.900;2023-02-18T05:47:03;10.40;63.20
50544;DHT22;41176;44.032;20.900;2023-02-18T05:49:30;10.40;62.80
50544;DHT22;41176;44.032;20.900;2023-02-18T05:51:57;10.40;63.00
50544;DHT22;41176;44.032;20.900;2023-02-18T05:54:23;10.40;63.10
50544;DHT22;41176;44.032;20.900;2023-02-18T05:56:49;10.40;62.90
50544;DHT22;41176;44.032;20.900;2023-02-18T05:59:15;10.40;62.90
50544;DHT22;41176;44.032;20.900;2023-02-18T06:01:41;10.50;62.70
50544;DHT22;41176;44.032;20.900;2023-02-18T06:04:06;10.50;62.50
50544;DHT22;41176;44.032;20.900;2023-02-18T06:06:32;10.60;62.70
50544;DHT22;41176;44.032;20.900;2023-02-18T06:08:58;10.60;62.90
50544;DHT22;41176;44.032;20.900;2023-02-18T06:11:23;10.60;63.10
50544;DHT22;41176;44.032;20.900;2023-02-18T06:13:49;10.70;63.20
50544;DHT22;41176;44.032;20.900;2023-02-18T06:16:15;10.70;63.80
50544;DHT22;41176;44.032;20.900;2023-02-18T06:18:40;10.70;63.80
50544;DHT22;41176;44.032;20.900;2023-02-18T06:21:06;10.70;63.70
50544;DHT22;41176;44.032;20.900;2023-02-18T06:23:32;10.80;63.70
50544;DHT22;41176;44.032;20.900;2023-02-18T06:25:57;10.80;63.60
50544;DHT22;41176;44.032;20.900;2023-02-18T06:28:23;10.80;63.80
50544;DHT22;41176;44.032;20.900;2023-02-18T06:30:49;10.80;63.90
50544;DHT22;41176;44.032;20.900;2023-02-18T06:33:14;10.80;63.90
50544;DHT22;41176;44.032;20.900;2023-02-18T06:35:41;10.80;64.70
50544;DHT22;41176;44.032;20.900;2023-02-18T06:38:06;10.90;63.90
50544;DHT22;41176;44.032;20.900;2023-02-18T06:40:32;10.90;63.50
50544;DHT22;41176;44.032;20.900;2023-02-18T06:42:58;11.00;63.30
50544;DHT22;41176;44.032;20.900;2023-02-18T06:45:24;11.10;63.10
50544;DHT22;41176;44.032;20.900;2023-02-18T06:47:49;11.20;63.00
50544;DHT22;41176;44.032;20.900;2023-02-18T06:50:15;11.20;62.80
50544;DHT22;41176;44.032;20.900;2023-02-18T06:52:41;11.30;62.40
50544;DHT22;41176;44.032;20.900;2023-02-18T06:55:07;11.30;62.30
50544;DHT22;41176;44.032;20.900;2023-02-18T06:57:36;11.40;62.70
50544;DHT22;41176;44.032;20.900;2023-02-18T07:00:04;11.60;62.10
50544;DHT22;41176;44.032;20.900;2023-02-18T07:02:29;11.70;61.20
50544;DHT22;41176;44.032;20.900;2023-02-18T07:04:55;11.80;61.20
50544;DHT22;41176;44.032;20.900;2023-02-18T07:07:21;11.90;60.80
50544;DHT22;41176;44.032;20.900;2023-02-18T07:09:46;12.10;60.30
50544;DHT22;41176;44.032;20.900;2023-02-18T07:12:12;12.30;60.00
50544;DHT22;41176;44.032;20.900;2023-02-18T07:14:38;12.60;59.50
50544;DHT22;41176;44.032;20.900;2023-02-18T07:17:03;12.70;58.90
50544;DHT22;41176;44.032;20.900;2023-02-18T07:19:29;12.60;58.90
50544;DHT22;41176;44.032;20.900;2023-02-18T07:21:55;12.70;59.30
50544;DHT22;41176;44.032;20.900;2023-02-18T07:24:22;12.60;58.80
50544;DHT22;41176;44.032;20.900;2023-02-18T07:26:48;12.50;59.00
50544;DHT22;41176;44.032;20.900;2023-02-18T07:29:14;12.50;59.00
50544;DHT22;41176;44.032;20.900;2023-02-18T07:31:40;12.70;59.00
50544;DHT22;41176;44.032;20.900;2023-02-18T07:34:05;12.70;58.70
50544;DHT22;41176;44.032;20.900;2023-02-18T07:36:31;12.80;59.10
50544;DHT22;41176;44.032;20.900;2023-02-18T07:38:57;13.30;58.50
50544;DHT22;41176;44.032;20.900;2023-02-18T07:41:22;13.80;57.20
50544;DHT22;41176;44.032;20.900;2023-02-18T07:43:49;13.60;56.80
50544;DHT22;41176;44.032;20.900;2023-02-18T07:46:15;13.40;57.90
50544;DHT22;41176;44.032;20.900;2023-02-18T07:48:41;13.10;57.90
50544;DHT22;41176;44.032;20.900;2023-02-18T07:51:09;13.00;58.20
50544;DHT22;41176;44.032;20.900;2023-02-18T07:53:35;12.90;58.60
50544;DHT22;41176;44.032;20.900;2023-02-18T07:56:01;12.90;59.10
50544;DHT22;41176;44.032;20.900;2023-02-18T07:58:30;13.00;58.80
50544;DHT22;41176;44.032;20.900;2023-02-18T08:00:57;13.00;59.10
50544;DHT22;41176;44.032;20.900;2023-02-18T08:03:28;13.10;58.90
50544;DHT22;41176;44.032;20.900;2023-02-18T08:05:54;13.20;58.70
50544;DHT22;41176;44.032;20.900;2023-02-18T08:08:23;13.20;58.40
50544;DHT22;41176;44.032;20.900;2023-02-18T08:10:49;13.20;58.30
50544;DHT22;41176;44.032;20.900;2023-02-18T08:13:15;13.30;58.20
50544;DHT22;41176;44.032;20.900;2023-02-18T08:15:41;13.60;57.90
50544;DHT22;41176;44.032;20.900;2023-02-18T08:18:13;13.80;57.50
50544;DHT22;41176;44.032;20.900;2023-02-18T08:20:39;14.20;57.40
50544;DHT22;41176;44.032;20.900;2023-02-18T08:23:05;14.90;55.80
50544;DHT22;41176;44.032;20.900;2023-02-18T08:25:31;15.70;54.20
50544;DHT22;41176;44.032;20.900;2023-02-18T08:27:58;15.80;53.30
50544;DHT22;41176;44.032;20.900;2023-02-18T08:30:24;15.70;53.60
50544;DHT22;41176;44.032;20.900;2023-02-18T08:32:49;15.90;53.20
50544;DHT22;41176;44.032;20.900;2023-02-18T08:35:15;16.40;52.70
50544;DHT22;41176;44.032;20.900;2023-02-18T08:37:41;17.20;51.00
50544;DHT22;41176;44.032;20.900;2023-02-18T08:40:08;18.30;50.20
50544;DHT22;41176;44.032;20.900;2023-02-18T08:42:33;19.30;48.60
50544;DHT22;41176;44.032;20.900;2023-02-18T08:44:59;20.10;47.00
50544;DHT22;41176;44.032;20.900;2023-02-18T08:47:25;21.00;46.90
50544;DHT22;41176;44.032;20.900;2023-02-18T08:49:52;21.60;44.60
50544;DHT22;41176;44.032;20.900;2023-02-18T08:52:18;22.20;44.10
50544;DHT22;41176;44.032;20.900;2023-02-18T08:54:43;22.10;44.10
50544;DHT22;41176;44.032;20.900;2023-02-18T08:57:09;22.30;43.70
50544;DHT22;41176;44.032;20.900;2023-02-18T08:59:35;22.40;42.50
50544;DHT22;41176;44.032;20.900;2023-02-18T09:02:01;22.20;42.60
50544;DHT22;41176;44.032;20.900;2023-02-18T09:04:26;22.70;42.10
50544;DHT22;41176;44.032;20.900;2023-02-18T09:06:52;22.50;41.80
50544;DHT22;41176;44.032;20.900;2023-02-18T09:09:18;22.30;42.10
50544;DHT22;41176;44.032;20.900;2023-02-18T09:11:44;22.60;42.50
50544;DHT22;41176;44.032;20.900;2023-02-18T09:14:10;23.00;41.90
50544;DHT22;41176;44.032;20.900;2023-02-18T09:16:36;23.10;41.30
50544;DHT22;41176;44.032;20.900;2023-02-18T09:19:03;22.80;41.60
50544;DHT22;41176;44.032;20.900;2023-02-18T09:21:29;22.70;41.50
50544;DHT22;41176;44.032;20.900;2023-02-18T09:23:54;23.00;41.00
50544;DHT22;41176;44.032;20.900;2023-02-18T09:26:21;23.20;40.90
50544;DHT22;41176;44.032;20.900;2023-02-18T09:28:48;23.60;40.70
50544;DHT22;41176;44.032;20.900;2023-02-18T09:31:17;23.20;40.70
50544;DHT22;41176;44.032;20.900;2023-02-18T09:33:48;23.00;40.50
50544;DHT22;41176;44.032;20.900;2023-02-18T09:36:14;22.90;41.50
50544;DHT22;41176;44.032;20.900;2023-02-18T09:38:39;22.90;40.90
50544;DHT22;41176;44.032;20.900;2023-02-18T09:41:12;22.80;42.20
50544;DHT22;41176;44.032;20.900;2023-02-18T09:43:46;22.80;41.70
50544;DHT22;41176;44.032;20.900;2023-02-18T09:46:23;22.90;41.90
50544;DHT22;41176;44.032;20.900;2023-02-18T09:48:50;23.40;41.00
50544;DHT22;41176;44.032;20.900;2023-02-18T09:51:17;23.50;39.60
50544;DHT22;41176;44.032;20.900;2023-02-18T09:53:44;23.10;41.00
50544;DHT22;41176;44.032;20.900;2023-02-18T09:56:22;23.10;40.20
50544;DHT22;41176;44.032;20.900;2023-02-18T09:58:51;22.90;41.90
50544;DHT22;41176;44.032;20.900;2023-02-18T10:01:35;22.60;41.10
50544;DHT22;41176;44.032;20.900;2023-02-18T10:04:36;22.50;41.30
50544;DHT22;41176;44.032;20.900;2023-02-18T10:07:05;22.40;42.00
50544;DHT22;41176;44.032;20.900;2023-02-18T10:09:36;21.90;41.80
50544;DHT22;41176;44.032;20.900;2023-02-18T10:12:21;21.50;42.20
50544;DHT22;41176;44.032;20.900;2023-02-18T10:14:55;21.50;42.30
50544;DHT22;41176;44.032;20.900;2023-02-18T10:17:26;21.40;42.80
50544;DHT22;41176;44.032;20.900;2023-02-18T10:19:53;21.10;42.80
50544;DHT22;41176;44.032;20.900;2023-02-18T10:22:21;21.30;44.10
50544;DHT22;41176;44.032;20.900;2023-02-18T10:24:54;21.70;42.70
50544;DHT22;41176;44.032;20.900;2023-02-18T10:27:26;21.90;42.90
50544;DHT22;41176;44.032;20.900;2023-02-18T10:30:39;22.20;42.60
50544;DHT22;41176;44.032;20.900;2023-02-18T10:32:43;23.20;41.90
50544;DHT22;41176;44.032;20.900;2023-02-18T10:35:37;24.30;40.80
50544;DHT22;41176;44.032;20.900;2023-02-18T10:38:12;25.00;39.70
50544;DHT22;41176;44.032;20.900;2023-02-18T10:51:45;25.20;38.40
50544;DHT22;41176;44.032;20.900;2023-02-18T10:54:14;24.50;37.50
50544;DHT22;41176;44.032;20.900;2023-02-18T10:56:49;24.60;38.90
50544;DHT22;41176;44.032;20.900;2023-02-18T10:59:21;25.30;37.70
50544;DHT22;41176;44.032;20.900;2023-02-18T11:01:56;25.00;37.60
50544;DHT22;41176;44.032;20.900;2023-02-18T11:04:35;24.40;38.40
50544;DHT22;41176;44.032;20.900;2023-02-18T11:07:14;24.20;38.90
50544;DHT22;41176;44.032;20.900;2023-02-18T11:09:51;23.70;39.50
50544;DHT22;41176;44.032;20.900;2023-02-18T11:12:45;23.50;39.60
50544;DHT22;41176;44.032;20.900;2023-02-18T11:17:41;23.20;39.90
50544;DHT22;41176;44.032;20.900;2023-02-18T11:20:30;22.90;40.20
50544;DHT22;41176;44.032;20.900;2023-02-18T11:25:32;22.40;41.20
50544;DHT22;41176;44.032;20.900;2023-02-18T11:30:44;21.40;42.10
50544;DHT22;41176;44.032;20.900;2023-02-18T11:33:41;21.40;42.40
50544;DHT22;41176;44.032;20.900;2023-02-18T11:36:43;21.10;42.00
50544;DHT22;41176;44.032;20.900;2023-02-18T11:39:21;20.70;43.30
50544;DHT22;41176;44.032;20.900;2023-02-18T11:42:10;20.50;43.10
50544;DHT22;41176;44.032;20.900;2023-02-18T11:44:55;20.30;43.90
50544;DHT22;41176;44.032;20.900;2023-02-18T11:48:13;20.20;43.90
50544;DHT22;41176;44.032;20.900;2023-02-18T11:50:20;20.10;43.50
50544;DHT22;41176;44.032;20.900;2023-02-18T11:52:48;20.00;44.50
50544;DHT22;41176;44.032;20.900;2023-02-18T11:57:44;19.50;44.70
50544;DHT22;41176;44.032;20.900;2023-02-18T12:00:29;19.30;45.40
50544;DHT22;41176;44.032;20.900;2023-02-18T12:03:02;19.10;45.70
50544;DHT22;41176;44.032;20.900;2023-02-18T12:05:30;18.80;45.80
50544;DHT22;41176;44.032;20.900;2023-02-18T12:08:19;19.40;46.20
50544;DHT22;41176;44.032;20.900;2023-02-18T12:10:49;20.60;44.20
50544;DHT22;41176;44.032;20.900;2023-02-18T12:13:23;21.70;42.60
50544;DHT22;41176;44.032;20.900;2023-02-18T12:16:32;22.80;41.90
50544;DHT22;41176;44.032;20.900;2023-02-18T12:25:12;23.40;39.30
50544;DHT22;41176;44.032;20.900;2023-02-18T12:27:42;23.20;40.10
50544;DHT22;41176;44.032;20.900;2023-02-18T12:35:48;23.20;39.70
50544;DHT22;41176;44.032;20.900;2023-02-18T12:38:55;23.50;39.70
50544;DHT22;41176;44.032;20.900;2023-02-18T12:44:37;23.70;39.70
50544;DHT22;41176;44.032;20.900;2023-02-18T12:53:11;23.60;39.00
50544;DHT22;41176;44.032;20.900;2023-02-18T13:09:56;24.40;39.30
50544;DHT22;41176;44.032;20.900;2023-02-18T13:15:02;24.70;38.80
50544;DHT22;41176;44.032;20.900;2023-02-18T13:17:34;24.20;39.30
50544;DHT22;41176;44.032;20.900;2023-02-18T13:20:14;23.90;39.30
50544;DHT22;41176;44.032;20.900;2023-02-18T13:22:43;23.80;40.00
50544;DHT22;41176;44.032;20.900;2023-02-18T13:25:13;23.50;40.50
50544;DHT22;41176;44.032;20.900;2023-02-18T13:28:10;23.20;40.60
50544;DHT22;41176;44.032;20.900;2023-02-18T13:31:14;22.80;41.10
50544;DHT22;41176;44.032;20.900;2023-02-18T13:36:22;22.40;41.70
50544;DHT22;41176;44.032;20.900;2023-02-18T13:38:59;22.50;42.10
50544;DHT22;41176;44.032;20.900;2023-02-18T13:41:26;22.60;41.30
50544;DHT22;41176;44.032;20.900;2023-02-18T13:43:52;22.60;42.00
50544;DHT22;41176;44.032;20.900;2023-02-18T13:46:20;22.50;41.90
50544;DHT22;41176;44.032;20.900;2023-02-18T13:48:54;22.40;42.00
50544;DHT22;41176;44.032;20.900;2023-02-18T13:57:02;22.60;42.20
50544;DHT22;41176;44.032;20.900;2023-02-18T13:59:39;22.30;42.50
50544;DHT22;41176;44.032;20.900;2023-02-18T14:41:57;19.80;46.50
50544;DHT22;41176;44.032;20.900;2023-02-18T14:44:41;19.80;46.70
50544;DHT22;41176;44.032;20.900;2023-02-18T14:47:22;19.90;46.60
50544;DHT22;41176;44.032;20.900;2023-02-18T14:49:58;19.80;47.00
50544;DHT22;41176;44.032;20.900;2023-02-18T14:52:29;19.70;47.20
50544;DHT22;41176;44.032;20.900;2023-02-18T14:55:02;19.60;47.40
50544;DHT22;41176;44.032;20.900;2023-02-18T14:57:49;19.40;47.30
50544;DHT22;41176;44.032;20.900;2023-02-18T15:02:54;18.90;48.30
50544;DHT22;41176;44.032;20.900;2023-02-18T15:05:23;18.80;49.50
50544;DHT22;41176;44.032;20.900;2023-02-18T15:08:16;18.80;49.50
50544;DHT22;41176;44.032;20.900;2023-02-18T15:11:09;18.60;49.80
50544;DHT22;41176;44.032;20.900;2023-02-18T15:13:46;18.40;50.00
50544;DHT22;41176;44.032;20.900;2023-02-18T15:16:32;18.30;50.50
50544;DHT22;41176;44.032;20.900;2023-02-18T15:19:06;18.20;50.90
50544;DHT22;41176;44.032;20.900;2023-02-18T15:21:44;18.00;51.60
50544;DHT22;41176;44.032;20.900;2023-02-18T15:24:43;18.00;50.90
50544;DHT22;41176;44.032;20.900;2023-02-18T15:31:31;17.70;52.00
50544;DHT22;41176;44.032;20.900;2023-02-18T15:34:41;17.60;52.30
50544;DHT22;41176;44.032;20.900;2023-02-18T15:37:36;17.40;52.10
50544;DHT22;41176;44.032;20.900;2023-02-18T15:40:25;17.30;52.70
50544;DHT22;41176;44.032;20.900;2023-02-18T15:43:20;17.10;53.60
50544;DHT22;41176;44.032;20.900;2023-02-18T15:45:59;16.90;52.90
50544;DHT22;41176;44.032;20.900;2023-02-18T15:52:15;16.70;53.30
50544;DHT22;41176;44.032;20.900;2023-02-18T16:04:30;16.20;53.60
50544;DHT22;41176;44.032;20.900;2023-02-18T16:11:16;15.90;54.50
50544;DHT22;41176;44.032;20.900;2023-02-18T16:14:18;15.90;54.70
50544;DHT22;41176;44.032;20.900;2023-02-18T16:23:45;15.70;54.80
50544;DHT22;41176;44.032;20.900;2023-02-18T16:26:45;15.60;55.10
50544;DHT22;41176;44.032;20.900;2023-02-18T16:29:41;15.50;55.70
50544;DHT22;41176;44.032;20.900;2023-02-18T16:32:34;15.30;55.90
50544;DHT22;41176;44.032;20.900;2023-02-18T16:38:15;15.10;56.00
50544;DHT22;41176;44.032;20.900;2023-02-18T16:40:41;15.10;56.70
50544;DHT22;41176;44.032;20.900;2023-02-18T16:43:17;15.10;58.10
50544;DHT22;41176;44.032;20.900;2023-02-18T16:45:48;15.00;58.30
50544;DHT22;41176;44.032;20.900;2023-02-18T16:48:19;14.90;58.40
50544;DHT22;41176;44.032;20.900;2023-02-18T16:50:45;14.80;58.00
50544;DHT22;41176;44.032;20.900;2023-02-18T16:56:25;14.80;57.60
50544;DHT22;41176;44.032;20.900;2023-02-18T16:58:53;14.80;57.60
50544;DHT22;41176;44.032;20.900;2023-02-18T17:01:30;14.90;58.10
50544;DHT22;41176;44.032;20.900;2023-02-18T17:04:00;14.90;57.90
50544;DHT22;41176;44.032;20.900;2023-02-18T17:06:26;14.80;57.60
50544;DHT22;41176;44.032;20.900;2023-02-18T17:08:52;14.80;57.50
50544;DHT22;41176;44.032;20.900;2023-02-18T17:11:29;14.70;57.90
50544;DHT22;41176;44.032;20.900;2023-02-18T17:13:58;14.60;58.10
50544;DHT22;41176;44.032;20.900;2023-02-18T17:16:25;14.40;58.30
50544;DHT22;41176;44.032;20.900;2023-02-18T17:18:51;14.30;59.00
50544;DHT22;41176;44.032;20.900;2023-02-18T17:21:23;14.00;59.50
50544;DHT22;41176;44.032;20.900;2023-02-18T17:23:50;13.80;60.40
50544;DHT22;41176;44.032;20.900;2023-02-18T17:26:19;13.50;61.00
50544;DHT22;41176;44.032;20.900;2023-02-18T17:28:45;13.40;61.40
50544;DHT22;41176;44.032;20.900;2023-02-18T17:31:25;13.20;61.80
50544;DHT22;41176;44.032;20.900;2023-02-18T17:33:57;13.20;62.30
50544;DHT22;41176;44.032;20.900;2023-02-18T17:36:24;13.10;62.30
50544;DHT22;41176;44.032;20.900;2023-02-18T17:38:50;13.00;62.50
50544;DHT22;41176;44.032;20.900;2023-02-18T17:41:16;13.00;62.70
50544;DHT22;41176;44.032;20.900;2023-02-18T17:43:43;12.90;62.80
50544;DHT22;41176;44.032;20.900;2023-02-18T17:46:15;12.90;63.00
50544;DHT22;41176;44.032;20.900;2023-02-18T17:48:43;12.80;63.40
50544;DHT22;41176;44.032;20.900;2023-02-18T17:51:26;12.70;63.60
50544;DHT22;41176;44.032;20.900;2023-02-18T17:53:56;12.70;63.90
50544;DHT22;41176;44.032;20.900;2023-02-18T17:56:22;12.60;64.10
50544;DHT22;41176;44.032;20.900;2023-02-18T17:58:47;12.50;64.20
50544;DHT22;41176;44.032;20.900;2023-02-18T18:01:14;12.50;64.20
50544;DHT22;41176;44.032;20.900;2023-02-18T18:03:41;12.40;64.40
50544;DHT22;41176;44.032;20.900;2023-02-18T18:06:17;12.30;64.90
50544;DHT22;41176;44.032;20.900;2023-02-18T18:08:46;12.20;65.00
50544;DHT22;41176;44.032;20.900;2023-02-18T18:11:22;12.30;65.00
50544;DHT22;41176;44.032;20.900;2023-02-18T18:13:48;12.30;65.10
50544;DHT22;41176;44.032;20.900;2023-02-18T18:16:16;12.30;65.10
50544;DHT22;41176;44.032;20.900;2023-02-18T18:18:44;12.20;65.20
50544;DHT22;41176;44.032;20.900;2023-02-18T18:21:26;12.20;65.50
50544;DHT22;41176;44.032;20.900;2023-02-18T18:23:53;12.10;65.70
50544;DHT22;41176;44.032;20.900;2023-02-18T18:26:18;12.10;65.80
50544;DHT22;41176;44.032;20.900;2023-02-18T18:28:44;12.00;66.00
50544;DHT22;41176;44.032;20.900;2023-02-18T18:31:16;12.00;66.30
50544;DHT22;41176;44.032;20.900;2023-02-18T18:33:47;11.90;66.20
50544;DHT22;41176;44.032;20.900;2023-02-18T18:36:16;11.90;66.30
50544;DHT22;41176;44.032;20.900;2023-02-18T18:38:44;11.90;66.20
50544;DHT22;41176;44.032;20.900;2023-02-18T18:41:19;11.90;66.20
50544;DHT22;41176;44.032;20.900;2023-02-18T18:43:45;11.90;65.70
50544;DHT22;41176;44.032;20.900;2023-02-18T18:46:11;11.90;66.20
50544;DHT22;41176;44.032;20.900;2023-02-18T18:48:37;11.80;66.10
50544;DHT22;41176;44.032;20.900;2023-02-18T18:51:03;11.80;66.50
50544;DHT22;41176;44.032;20.900;2023-02-18T18:53:33;11.70;66.80
50544;DHT22;41176;44.032;20.900;2023-02-18T18:56:01;11.60;66.90
50544;DHT22;41176;44.032;20.900;2023-02-18T18:58:28;11.40;67.20
50544;DHT22;41176;44.032;20.900;2023-02-18T19:00:58;11.30;67.60